Time;durP1;ratioP1;P1;durP2;ratioP2;P2;SDS_P1;SDS_P2;PMS_P1;PMS_P2;Temp;Humidity;BMP_temperature;BMP_pressure;BME280_temperature;BME280_humidity;BME280_pressure;Samples;Min_cycle;Max_cycle;Signal;HPM_P1;HPM_P2
2022/12/23 00:01:08;;;;;;;2.42;1.00;;;;;;;;;;5051395;28;20104;-42
2022/12/23 00:03:34;;;;;;;1.98;0.98;;;;;;;;;;5051574;28;20028;-43
2022/12/23 00:06:00;;;;;;;1.90;0.80;;;;;;;;;;5050470;28;20052;-42
2022/12/23 00:08:27;;;;;;;1.75;0.75;;;;;;;;;;5051259;28;20356;-43
2022/12/23 00:10:54;;;;;;;3.13;0.98;;;;;;;;;;5050881;28;20063;-43
2022/12/23 00:16:05;;;;;;;2.30;0.88;;;;;;;;;;5049877;28;20083;-42
2022/12/23 00:18:31;;;;;;;1.83;0.82;;;;;;;;;;5050455;28;20028;-42
2022/12/23 00:21:01;;;;;;;1.73;0.80;;;;;;;;;;5051199;28;20100;-42
2022/12/23 00:23:27;;;;;;;1.25;0.60;;;;;;;;;;5051828;28;20017;-42
2022/12/23 00:25:53;;;;;;;1.45;0.88;;;;;;;;;;5050799;28;20452;-43
2022/12/23 00:28:21;;;;;;;2.08;1.10;;;;;;;;;;5050818;28;20032;-43
2022/12/23 00:30:48;;;;;;;3.33;1.15;;;;;;;;;;5051579;28;20386;-45
2022/12/23 00:33:15;;;;;;;0.85;0.60;;;;;;;;;;5050403;28;20479;-42
2022/12/23 00:35:41;;;;;;;1.33;0.85;;;;;;;;;;5051070;28;20035;-43
2022/12/23 00:38:07;;;;;;;2.03;0.70;;;;;;;;;;5047369;28;20025;-43
2022/12/23 00:43:18;;;;;;;1.92;0.70;;;;;;;;;;5050619;28;20068;-42
2022/12/23 00:45:44;;;;;;;1.98;0.63;;;;;;;;;;5051196;28;20065;-42
2022/12/23 00:50:55;;;;;;;2.78;1.05;;;;;;;;;;5050356;28;20079;-42
2022/12/23 00:53:22;;;;;;;1.83;0.70;;;;;;;;;;5050781;28;20021;-42
2022/12/23 00:55:49;;;;;;;0.90;0.65;;;;;;;;;;5042918;28;20048;-44
2022/12/23 00:58:15;;;;;;;1.52;0.75;;;;;;;;;;5045083;28;20121;-42
2022/12/23 01:06:11;;;;;;;1.85;1.13;;;;;;;;;;5050052;28;20127;-43
2022/12/23 01:08:37;;;;;;;1.45;0.70;;;;;;;;;;5050594;28;20466;-43
2022/12/23 01:11:03;;;;;;;1.45;0.70;;;;;;;;;;5050836;28;20029;-43
2022/12/23 01:13:29;;;;;;;1.63;0.70;;;;;;;;;;5048864;28;20104;-45
2022/12/23 01:15:59;;;;;;;1.35;0.52;;;;;;;;;;5041692;28;20462;-43
2022/12/23 01:18:25;;;;;;;1.35;0.57;;;;;;;;;;5050846;28;20426;-42
2022/12/23 01:20:51;;;;;;;1.90;0.90;;;;;;;;;;5050599;28;20226;-45
2022/12/23 01:23:17;;;;;;;2.20;0.60;;;;;;;;;;5050879;28;20024;-42
2022/12/23 01:25:43;;;;;;;1.67;0.60;;;;;;;;;;5050685;28;20037;-43
2022/12/23 01:28:09;;;;;;;1.00;0.50;;;;;;;;;;5053785;28;20022;-42
2022/12/23 01:30:36;;;;;;;1.38;0.68;;;;;;;;;;5055412;28;20466;-42
2022/12/23 01:33:02;;;;;;;1.00;0.50;;;;;;;;;;5042314;28;20029;-42
2022/12/23 01:35:28;;;;;;;2.10;0.90;;;;;;;;;;5054954;28;20029;-43
2022/12/23 01:37:54;;;;;;;0.82;0.50;;;;;;;;;;5038142;28;20025;-43
2022/12/23 01:40:20;;;;;;;0.82;0.55;;;;;;;;;;5038196;28;20025;-42
2022/12/23 01:42:46;;;;;;;1.17;0.40;;;;;;;;;;5038854;28;20025;-43
2022/12/23 01:45:17;;;;;;;1.58;0.57;;;;;;;;;;5033998;28;20293;-42
2022/12/23 01:47:43;;;;;;;1.73;0.75;;;;;;;;;;5051339;28;20029;-42
2022/12/23 01:50:18;;;;;;;0.65;0.60;;;;;;;;;;5046414;28;20167;-45
2022/12/23 01:52:49;;;;;;;1.35;0.60;;;;;;;;;;5053311;28;20029;-43
2022/12/23 01:55:18;;;;;;;0.60;0.37;;;;;;;;;;5053852;28;20117;-42
2022/12/23 01:57:44;;;;;;;0.77;0.60;;;;;;;;;;5053321;28;20092;-43
2022/12/23 02:05:41;;;;;;;0.82;0.40;;;;;;;;;;5053164;28;20099;-42
2022/12/23 02:11:01;;;;;;;1.80;0.93;;;;;;;;;;5050289;28;20057;-45
2022/12/23 02:13:33;;;;;;;0.70;0.40;;;;;;;;;;5054244;28;20065;-43
2022/12/23 02:16:15;;;;;;;0.90;0.45;;;;;;;;;;5036853;28;20076;-42
2022/12/23 02:18:50;;;;;;;1.67;0.50;;;;;;;;;;5052010;28;20022;-43
2022/12/23 02:21:22;;;;;;;1.75;0.60;;;;;;;;;;5049207;28;20025;-42
2022/12/23 02:23:48;;;;;;;;;;;;;;;;;;5053781;28;20449;-42
2022/12/23 02:26:13;;;;;;;0.88;0.50;;;;;;;;;;5050849;28;19954;-42
2022/12/23 02:28:42;;;;;;;0.43;0.40;;;;;;;;;;5053333;28;20048;-42
2022/12/23 02:31:30;;;;;;;1.15;0.45;;;;;;;;;;5052882;28;20078;-43
2022/12/23 02:33:59;;;;;;;0.68;0.40;;;;;;;;;;5052887;28;20025;-42
2022/12/23 02:36:44;;;;;;;0.60;0.45;;;;;;;;;;5047087;28;20044;-43
2022/12/23 02:39:15;;;;;;;0.20;0.20;;;;;;;;;;5052063;28;20025;-42
2022/12/23 02:41:47;;;;;;;0.60;0.40;;;;;;;;;;5053915;28;20033;-42
2022/12/23 02:44:31;;;;;;;1.65;0.63;;;;;;;;;;5052188;28;20106;-43
2022/12/23 02:47:05;;;;;;;0.95;0.45;;;;;;;;;;5050491;28;20033;-42
2022/12/23 02:49:36;;;;;;;0.70;0.60;;;;;;;;;;5053592;28;20478;-43
2022/12/23 02:52:05;;;;;;;1.52;0.43;;;;;;;;;;5052388;28;20056;-42
2022/12/23 02:54:33;;;;;;;0.43;0.30;;;;;;;;;;5053434;28;20363;-42
2022/12/23 02:57:00;;;;;;;2.20;0.50;;;;;;;;;;5051941;28;20075;-42
2022/12/23 02:59:29;;;;;;;1.40;0.50;;;;;;;;;;5053534;28;20021;-42
2022/12/23 03:01:55;;;;;;;0.55;0.40;;;;;;;;;;5052057;28;20017;-46
2022/12/23 03:04:21;;;;;;;1.42;0.50;;;;;;;;;;5052582;28;20033;-42
2022/12/23 03:06:49;;;;;;;0.77;0.40;;;;;;;;;;5053140;28;20033;-44
2022/12/23 03:09:24;;;;;;;0.30;0.30;;;;;;;;;;5051631;28;20029;-42
2022/12/23 03:11:50;;;;;;;0.50;0.50;;;;;;;;;;5052709;28;20086;-46
2022/12/23 03:14:39;;;;;;;0.43;0.22;;;;;;;;;;5052358;28;20032;-42
2022/12/23 03:17:08;;;;;;;0.40;0.35;;;;;;;;;;5036135;28;20029;-42
2022/12/23 03:19:43;;;;;;;0.55;0.30;;;;;;;;;;5052567;28;20127;-42
2022/12/23 03:22:28;;;;;;;0.88;0.40;;;;;;;;;;5052117;28;20086;-42
2022/12/23 03:25:00;;;;;;;1.10;0.45;;;;;;;;;;5051032;28;20426;-43
2022/12/23 03:27:33;;;;;;;3.13;0.47;;;;;;;;;;5041578;28;20108;-43
2022/12/23 03:30:03;;;;;;;1.80;0.60;;;;;;;;;;5052788;28;20017;-42
2022/12/23 03:32:31;;;;;;;0.38;0.30;;;;;;;;;;5052209;28;20036;-43
2022/12/23 03:34:59;;;;;;;0.38;0.30;;;;;;;;;;5042680;28;20047;-43
2022/12/23 03:37:27;;;;;;;0.68;0.40;;;;;;;;;;5041038;28;20041;-42
2022/12/23 03:39:54;;;;;;;1.00;0.30;;;;;;;;;;5032410;28;20029;-46
2022/12/23 03:42:25;;;;;;;0.50;0.43;;;;;;;;;;5040333;28;20112;-43
2022/12/23 03:44:52;;;;;;;0.52;0.40;;;;;;;;;;5031866;28;20025;-45
2022/12/23 03:47:38;;;;;;;0.80;0.40;;;;;;;;;;5045287;28;20470;-42
2022/12/23 03:50:09;;;;;;;0.73;0.30;;;;;;;;;;5040519;28;20029;-42
2022/12/23 03:52:38;;;;;;;0.35;0.20;;;;;;;;;;5040688;28;20021;-42
2022/12/23 03:55:06;;;;;;;0.75;0.40;;;;;;;;;;5045922;28;20025;-42
2022/12/23 03:57:42;;;;;;;0.38;0.30;;;;;;;;;;5048001;28;20032;-42
2022/12/23 04:00:08;;;;;;;0.43;0.30;;;;;;;;;;5048249;28;20025;-42
2022/12/23 04:02:43;;;;;;;0.65;0.45;;;;;;;;;;5051898;28;20032;-42
2022/12/23 04:05:12;;;;;;;0.68;0.20;;;;;;;;;;5051155;28;20095;-42
2022/12/23 04:07:40;;;;;;;0.80;0.32;;;;;;;;;;5051169;28;20051;-43
2022/12/23 04:10:07;;;;;;;0.65;0.40;;;;;;;;;;5044823;28;20033;-42
2022/12/23 04:12:33;;;;;;;0.70;0.47;;;;;;;;;;5051664;28;20025;-43
2022/12/23 04:14:59;;;;;;;0.93;0.55;;;;;;;;;;5051245;28;20057;-42
2022/12/23 04:17:25;;;;;;;0.30;0.30;;;;;;;;;;5051468;28;20048;-42
2022/12/23 04:19:52;;;;;;;1.05;0.50;;;;;;;;;;5051310;28;20025;-46
2022/12/23 04:22:18;;;;;;;0.25;0.25;;;;;;;;;;5050102;28;20043;-42
2022/12/23 04:24:44;;;;;;;0.93;0.32;;;;;;;;;;5051567;28;20481;-43
2022/12/23 04:27:13;;;;;;;0.68;0.57;;;;;;;;;;5044539;28;20104;-43
2022/12/23 04:29:39;;;;;;;0.20;0.20;;;;;;;;;;5045934;28;20021;-42
2022/12/23 04:32:05;;;;;;;0.30;0.20;;;;;;;;;;5050125;28;20486;-42
2022/12/23 04:34:31;;;;;;;0.70;0.35;;;;;;;;;;5051662;28;20221;-42
2022/12/23 04:36:57;;;;;;;0.90;0.30;;;;;;;;;;5050255;28;20021;-42
2022/12/23 04:39:23;;;;;;;0.82;0.30;;;;;;;;;;5051616;28;20021;-42
2022/12/23 04:41:49;;;;;;;0.35;0.30;;;;;;;;;;5044271;28;20021;-44
2022/12/23 04:44:15;;;;;;;0.93;0.40;;;;;;;;;;5049005;28;20056;-42
2022/12/23 04:46:41;;;;;;;0.70;0.38;;;;;;;;;;5051034;28;20036;-42
2022/12/23 04:49:07;;;;;;;0.47;0.30;;;;;;;;;;5050116;28;20052;-43
2022/12/23 04:51:33;;;;;;;1.52;0.88;;;;;;;;;;5051450;28;20033;-43
2022/12/23 04:53:59;;;;;;;0.55;0.30;;;;;;;;;;5049679;28;20033;-43
2022/12/23 04:56:25;;;;;;;0.90;0.30;;;;;;;;;;5051085;28;20040;-44
2022/12/23 04:58:51;;;;;;;0.40;0.30;;;;;;;;;;5050455;28;20363;-45
2022/12/23 05:01:17;;;;;;;0.98;0.45;;;;;;;;;;5050950;28;20017;-42
2022/12/23 05:03:43;;;;;;;0.30;0.30;;;;;;;;;;5050693;28;20108;-43
2022/12/23 05:06:09;;;;;;;0.50;0.30;;;;;;;;;;5050085;28;20049;-43
2022/12/23 05:08:35;;;;;;;1.90;0.50;;;;;;;;;;5050053;28;20100;-43
2022/12/23 05:11:01;;;;;;;1.10;0.50;;;;;;;;;;5029770;28;20139;-42
2022/12/23 05:13:27;;;;;;;0.40;0.40;;;;;;;;;;5050777;28;20109;-42
2022/12/23 05:15:53;;;;;;;0.30;0.20;;;;;;;;;;5051027;28;20094;-45
2022/12/23 05:18:20;;;;;;;0.60;0.32;;;;;;;;;;5049678;28;20429;-42
2022/12/23 05:20:46;;;;;;;0.68;0.28;;;;;;;;;;5050506;28;20100;-44
2022/12/23 05:23:12;;;;;;;0.95;0.35;;;;;;;;;;5050069;28;20060;-42
2022/12/23 05:25:39;;;;;;;0.40;0.20;;;;;;;;;;5051344;28;20029;-42
2022/12/23 05:28:06;;;;;;;0.77;0.32;;;;;;;;;;5033139;28;20022;-42
2022/12/23 05:30:32;;;;;;;0.85;0.30;;;;;;;;;;5043114;28;20043;-42
2022/12/23 05:32:58;;;;;;;0.45;0.30;;;;;;;;;;5044878;28;20033;-42
2022/12/23 05:35:25;;;;;;;0.70;0.40;;;;;;;;;;5050829;28;20063;-42
2022/12/23 05:37:51;;;;;;;0.73;0.40;;;;;;;;;;5050375;28;20021;-44
2022/12/23 05:40:17;;;;;;;0.75;0.40;;;;;;;;;;5050906;28;20047;-42
2022/12/23 05:42:43;;;;;;;0.43;0.30;;;;;;;;;;5048183;28;20524;-42
2022/12/23 05:45:10;;;;;;;1.83;0.40;;;;;;;;;;5044571;28;20033;-42
2022/12/23 05:47:36;;;;;;;0.95;0.43;;;;;;;;;;5049498;28;20045;-42
2022/12/23 05:50:02;;;;;;;0.25;0.25;;;;;;;;;;5049782;28;20033;-43
2022/12/23 05:52:28;;;;;;;0.63;0.60;;;;;;;;;;5050298;28;20036;-42
2022/12/23 05:54:54;;;;;;;0.43;0.40;;;;;;;;;;5049972;28;20064;-42
2022/12/23 05:57:20;;;;;;;1.38;0.30;;;;;;;;;;5049926;28;20057;-42
2022/12/23 05:59:46;;;;;;;0.25;0.20;;;;;;;;;;5051084;28;20413;-42
2022/12/23 06:02:12;;;;;;;0.75;0.35;;;;;;;;;;5049146;28;20029;-42
2022/12/23 06:04:38;;;;;;;0.80;0.30;;;;;;;;;;5049838;28;20495;-43
2022/12/23 06:07:04;;;;;;;1.20;0.30;;;;;;;;;;5049547;28;20022;-42
2022/12/23 06:09:30;;;;;;;1.65;0.82;;;;;;;;;;5043951;28;20022;-42
2022/12/23 06:11:55;;;;;;;0.22;0.22;;;;;;;;;;5049144;28;20475;-43
2022/12/23 06:14:21;;;;;;;0.52;0.52;;;;;;;;;;5054389;28;20060;-42
2022/12/23 06:16:49;;;;;;;0.68;0.30;;;;;;;;;;5053692;28;20020;-42
2022/12/23 06:19:15;;;;;;;0.30;0.20;;;;;;;;;;5053207;28;20021;-42
2022/12/23 06:21:41;;;;;;;0.30;0.28;;;;;;;;;;5053625;28;20070;-42
2022/12/23 06:24:07;;;;;;;0.40;0.40;;;;;;;;;;5053167;28;20377;-42
2022/12/23 06:26:34;;;;;;;0.77;0.43;;;;;;;;;;5053825;28;20031;-41
2022/12/23 06:29:00;;;;;;;0.25;0.25;;;;;;;;;;5052335;28;20052;-42
2022/12/23 06:31:26;;;;;;;0.88;0.40;;;;;;;;;;5041035;28;20471;-42
2022/12/23 06:33:52;;;;;;;0.73;0.35;;;;;;;;;;5031854;28;20017;-45
2022/12/23 06:36:19;;;;;;;0.32;0.30;;;;;;;;;;5047417;28;20474;-42
2022/12/23 06:38:45;;;;;;;0.63;0.30;;;;;;;;;;5034084;28;20029;-42
2022/12/23 06:41:11;;;;;;;0.65;0.35;;;;;;;;;;5032599;28;20025;-43
2022/12/23 06:43:37;;;;;;;0.35;0.30;;;;;;;;;;5033458;28;20021;-42
2022/12/23 06:46:03;;;;;;;0.40;0.30;;;;;;;;;;5035917;28;20162;-42
2022/12/23 06:48:28;;;;;;;1.00;0.40;;;;;;;;;;5043463;28;20470;-41
2022/12/23 06:50:55;;;;;;;0.73;0.40;;;;;;;;;;5053167;28;20032;-42
2022/12/23 06:53:20;;;;;;;0.52;0.45;;;;;;;;;;5053022;28;20017;-41
2022/12/23 06:55:46;;;;;;;0.57;0.30;;;;;;;;;;5053792;28;20478;-42
2022/12/23 06:58:12;;;;;;;0.82;0.40;;;;;;;;;;5051787;28;20021;-44
2022/12/23 07:00:38;;;;;;;0.38;0.20;;;;;;;;;;5053352;28;20104;-42
2022/12/23 07:03:04;;;;;;;1.85;0.40;;;;;;;;;;5052252;28;20466;-42
2022/12/23 07:05:30;;;;;;;0.22;0.20;;;;;;;;;;5042078;28;20041;-41
2022/12/23 07:07:57;;;;;;;1.08;0.60;;;;;;;;;;5049781;28;20028;-41
2022/12/23 07:10:23;;;;;;;0.30;0.30;;;;;;;;;;5050677;28;20028;-43
2022/12/23 07:12:49;;;;;;;0.50;0.38;;;;;;;;;;5044732;28;20017;-42
2022/12/23 07:15:15;;;;;;;0.65;0.38;;;;;;;;;;5046693;28;20792;-43
2022/12/23 07:17:41;;;;;;;0.57;0.38;;;;;;;;;;5048206;28;20036;-41
2022/12/23 07:20:07;;;;;;;1.30;0.65;;;;;;;;;;5052037;28;20059;-41
2022/12/23 07:22:33;;;;;;;0.50;0.30;;;;;;;;;;5052179;28;20021;-42
2022/12/23 07:24:59;;;;;;;1.40;0.52;;;;;;;;;;5050221;28;20060;-43
2022/12/23 07:27:25;;;;;;;0.90;0.40;;;;;;;;;;5052132;28;20052;-41
2022/12/23 07:29:51;;;;;;;1.35;0.50;;;;;;;;;;5051158;28;20017;-45
2022/12/23 07:32:17;;;;;;;0.95;0.40;;;;;;;;;;5052029;28;20464;-42
2022/12/23 07:34:43;;;;;;;2.00;0.40;;;;;;;;;;5052477;28;20025;-41
2022/12/23 07:37:09;;;;;;;0.43;0.30;;;;;;;;;;5050654;28;20809;-42
2022/12/23 07:39:35;;;;;;;0.50;0.35;;;;;;;;;;5052495;28;20032;-42
2022/12/23 07:42:01;;;;;;;0.85;0.35;;;;;;;;;;5038930;28;20055;-42
2022/12/23 07:44:27;;;;;;;3.03;0.55;;;;;;;;;;5051727;28;20048;-42
2022/12/23 07:46:53;;;;;;;1.58;0.60;;;;;;;;;;5051453;28;20541;-46
2022/12/23 07:49:19;;;;;;;1.15;0.50;;;;;;;;;;5051024;28;20025;-41
2022/12/23 07:51:45;;;;;;;2.60;0.60;;;;;;;;;;5052280;28;20409;-42
2022/12/23 07:54:12;;;;;;;4.55;0.80;;;;;;;;;;5049556;28;20013;-41
2022/12/23 07:56:38;;;;;;;1.70;0.63;;;;;;;;;;5052275;28;20159;-42
2022/12/23 07:59:04;;;;;;;1.30;0.32;;;;;;;;;;5050669;28;20104;-44
2022/12/23 08:01:30;;;;;;;3.10;0.60;;;;;;;;;;5049743;28;20029;-44
2022/12/23 08:03:56;;;;;;;0.85;0.40;;;;;;;;;;5040439;28;20044;-44
2022/12/23 08:06:22;;;;;;;3.85;0.60;;;;;;;;;;5051134;28;20049;-44
2022/12/23 08:08:48;;;;;;;1.88;0.63;;;;;;;;;;5048762;28;20025;-43
2022/12/23 08:11:15;;;;;;;2.22;0.60;;;;;;;;;;5050923;28;20025;-44
2022/12/23 08:13:41;;;;;;;1.27;0.40;;;;;;;;;;5051059;28;20136;-43
2022/12/23 08:16:08;;;;;;;2.25;0.60;;;;;;;;;;5051425;28;20041;-44
2022/12/23 08:18:35;;;;;;;3.22;0.70;;;;;;;;;;5045021;28;20059;-44
2022/12/23 08:21:03;;;;;;;1.80;0.40;;;;;;;;;;5049105;28;20021;-44
2022/12/23 08:23:29;;;;;;;1.35;0.70;;;;;;;;;;5050899;28;20032;-43
2022/12/23 08:26:05;;;;;;;1.67;0.43;;;;;;;;;;5050875;28;20033;-44
2022/12/23 08:28:32;;;;;;;2.42;0.57;;;;;;;;;;5051101;28;20025;-43
2022/12/23 08:31:05;;;;;;;2.15;0.82;;;;;;;;;;5051088;28;20028;-44
2022/12/23 08:33:32;;;;;;;2.25;0.70;;;;;;;;;;5050792;28;20033;-44
2022/12/23 08:35:58;;;;;;;1.40;0.47;;;;;;;;;;5050299;28;20043;-43
2022/12/23 08:38:24;;;;;;;1.95;0.57;;;;;;;;;;5037921;28;20025;-44
2022/12/23 08:40:49;;;;;;;1.42;0.40;;;;;;;;;;5051543;28;20470;-46
2022/12/23 08:43:15;;;;;;;1.20;0.60;;;;;;;;;;5050871;28;20108;-43
2022/12/23 08:45:41;;;;;;;1.15;0.60;;;;;;;;;;5051242;28;20375;-44
2022/12/23 08:48:07;;;;;;;1.42;0.50;;;;;;;;;;5050154;28;20025;-43
2022/12/23 08:50:43;;;;;;;2.15;0.70;;;;;;;;;;5051472;28;20112;-44
2022/12/23 08:53:09;;;;;;;0.73;0.50;;;;;;;;;;5050076;28;20063;-44
2022/12/23 08:55:43;;;;;;;1.08;0.40;;;;;;;;;;5046194;28;20025;-44
2022/12/23 08:58:09;;;;;;;0.93;0.60;;;;;;;;;;5050166;28;20040;-43
2022/12/23 09:00:35;;;;;;;1.83;0.98;;;;;;;;;;5047580;28;20056;-43
2022/12/23 09:03:01;;;;;;;1.55;0.60;;;;;;;;;;5044443;28;20065;-43
2022/12/23 09:05:28;;;;;;;0.80;0.50;;;;;;;;;;5046891;28;20051;-43
2022/12/23 09:07:54;;;;;;;2.53;0.52;;;;;;;;;;5049663;28;20090;-45
2022/12/23 09:10:20;;;;;;;0.90;0.40;;;;;;;;;;5049772;28;20366;-43
2022/12/23 09:12:46;;;;;;;1.17;0.38;;;;;;;;;;5048323;28;20052;-43
2022/12/23 09:15:12;;;;;;;3.78;0.73;;;;;;;;;;5049953;28;20465;-42
2022/12/23 09:17:38;;;;;;;0.38;0.38;;;;;;;;;;5048803;28;20104;-43
2022/12/23 09:20:04;;;;;;;1.30;1.20;;;;;;;;;;5048659;28;20105;-42
2022/12/23 09:22:33;;;;;;;0.95;0.50;;;;;;;;;;5050515;28;20075;-42
2022/12/23 09:24:59;;;;;;;0.63;0.57;;;;;;;;;;5049941;28;20471;-43
2022/12/23 09:27:25;;;;;;;0.63;0.38;;;;;;;;;;5048755;28;20053;-42
2022/12/23 09:29:51;;;;;;;0.70;0.50;;;;;;;;;;5047445;28;20331;-46
2022/12/23 09:32:18;;;;;;;1.20;0.40;;;;;;;;;;5049897;28;20604;-42
2022/12/23 09:34:44;;;;;;;0.98;0.50;;;;;;;;;;5050646;28;20024;-42
2022/12/23 09:37:12;;;;;;;1.13;0.52;;;;;;;;;;5049395;28;20658;-42
2022/12/23 09:39:38;;;;;;;1.42;0.50;;;;;;;;;;5050544;28;20021;-43
2022/12/23 09:42:04;;;;;;;0.80;0.47;;;;;;;;;;5049371;28;20032;-43
2022/12/23 09:44:57;;;;;;;1.67;0.52;;;;;;;;;;5049743;28;20453;-42
2022/12/23 09:47:25;;;;;;;1.55;0.70;;;;;;;;;;5050945;28;20494;-43
2022/12/23 09:49:58;;;;;;;1.52;0.60;;;;;;;;;;5054370;28;20079;-46
2022/12/23 09:52:35;;;;;;;1.67;0.70;;;;;;;;;;5054458;28;20021;-42
2022/12/23 09:55:01;;;;;;;1.27;0.40;;;;;;;;;;5052903;28;20493;-46
2022/12/23 09:57:34;;;;;;;2.03;0.70;;;;;;;;;;5051103;28;20021;-42
2022/12/23 10:00:17;;;;;;;1.63;0.68;;;;;;;;;;5052874;28;20024;-42
2022/12/23 10:03:01;;;;;;;2.60;0.60;;;;;;;;;;5048968;28;20021;-43
2022/12/23 10:05:45;;;;;;;0.73;0.68;;;;;;;;;;5053633;28;20049;-43
2022/12/23 10:08:21;;;;;;;1.08;0.50;;;;;;;;;;5053201;28;20052;-42
2022/12/23 10:10:53;;;;;;;1.58;0.60;;;;;;;;;;5054255;28;20051;-42
2022/12/23 10:13:28;;;;;;;0.73;0.40;;;;;;;;;;5053510;28;20040;-43
2022/12/23 10:15:56;;;;;;;1.67;0.52;;;;;;;;;;5053000;28;20385;-45
2022/12/23 10:18:33;;;;;;;0.68;0.40;;;;;;;;;;5052121;28;20473;-43
2022/12/23 10:21:01;;;;;;;0.90;0.40;;;;;;;;;;5046307;28;20029;-43
2022/12/23 10:23:31;;;;;;;0.90;0.57;;;;;;;;;;5054093;28;20025;-42
2022/12/23 10:25:57;;;;;;;1.70;0.50;;;;;;;;;;5052757;28;20029;-43
2022/12/23 10:28:23;;;;;;;2.72;0.50;;;;;;;;;;5052537;28;20021;-43
2022/12/23 10:31:15;;;;;;;3.42;0.47;;;;;;;;;;5053816;28;20064;-42
2022/12/23 10:34:01;;;;;;;2.17;0.63;;;;;;;;;;5048683;28;20038;-43
2022/12/23 10:36:39;;;;;;;0.80;0.50;;;;;;;;;;5046669;28;20040;-43
2022/12/23 10:39:12;;;;;;;2.38;0.60;;;;;;;;;;5052357;28;20466;-42
2022/12/23 10:41:59;;;;;;;0.73;0.47;;;;;;;;;;5053500;28;20031;-43
2022/12/23 10:44:43;;;;;;;1.30;0.60;;;;;;;;;;5050106;28;20029;-43
2022/12/23 10:47:21;;;;;;;2.80;0.70;;;;;;;;;;5049447;28;20148;-43
2022/12/23 10:50:06;;;;;;;0.80;0.50;;;;;;;;;;5053515;28;20025;-44
2022/12/23 10:52:34;;;;;;;1.65;0.40;;;;;;;;;;5046772;28;20029;-42
2022/12/23 10:55:00;;;;;;;2.65;0.60;;;;;;;;;;5042306;28;20028;-43
2022/12/23 10:57:26;;;;;;;1.77;0.63;;;;;;;;;;5052346;28;20465;-43
2022/12/23 10:59:52;;;;;;;1.80;0.60;;;;;;;;;;5052575;28;20112;-46
2022/12/23 11:02:21;;;;;;;0.63;0.38;;;;;;;;;;5052517;28;20163;-42
2022/12/23 11:04:47;;;;;;;2.15;0.32;;;;;;;;;;5050541;28;20124;-43
2022/12/23 11:07:17;;;;;;;2.15;0.55;;;;;;;;;;5048506;28;20025;-42
2022/12/23 11:09:45;;;;;;;0.70;0.45;;;;;;;;;;5049294;28;20030;-43
2022/12/23 11:12:11;;;;;;;3.25;0.65;;;;;;;;;;5051650;28;20028;-43
2022/12/23 11:14:37;;;;;;;1.48;0.57;;;;;;;;;;5053109;28;20082;-43
2022/12/23 11:17:04;;;;;;;0.68;0.40;;;;;;;;;;5051820;28;20021;-43
2022/12/23 11:19:30;;;;;;;2.60;0.68;;;;;;;;;;5050182;28;20025;-43
2022/12/23 11:21:57;;;;;;;4.43;0.63;;;;;;;;;;5037366;28;20025;-46
2022/12/23 11:24:24;;;;;;;2.63;0.60;;;;;;;;;;5052234;28;20033;-43
2022/12/23 11:26:58;;;;;;;3.88;1.17;;;;;;;;;;5049993;28;20063;-42
2022/12/23 11:29:27;;;;;;;3.33;0.68;;;;;;;;;;5052559;28;20029;-43
2022/12/23 11:31:53;;;;;;;3.53;0.70;;;;;;;;;;5052413;28;20378;-46
2022/12/23 11:34:20;;;;;;;1.55;0.98;;;;;;;;;;5052475;28;20092;-42
2022/12/23 11:36:54;;;;;;;4.05;0.77;;;;;;;;;;5048624;28;20025;-43
2022/12/23 11:39:31;;;;;;;2.38;1.05;;;;;;;;;;5046535;28;20370;-42
2022/12/23 11:42:03;;;;;;;7.80;1.20;;;;;;;;;;5047155;28;20024;-44
2022/12/23 11:44:34;;;;;;;1.75;0.70;;;;;;;;;;5040073;28;20029;-42
2022/12/23 11:47:24;;;;;;;2.03;0.98;;;;;;;;;;5045909;28;20033;-43
2022/12/23 11:49:54;;;;;;;4.30;0.90;;;;;;;;;;5038916;28;20056;-46
2022/12/23 11:52:21;;;;;;;3.65;0.75;;;;;;;;;;5050047;28;20104;-43
2022/12/23 11:54:55;;;;;;;3.95;0.95;;;;;;;;;;5047765;28;20031;-42
2022/12/23 11:57:23;;;;;;;2.45;1.08;;;;;;;;;;5052025;28;20025;-42
2022/12/23 11:59:49;;;;;;;6.82;1.63;;;;;;;;;;5051496;28;20402;-44
2022/12/23 12:02:20;;;;;;;3.42;1.23;;;;;;;;;;5045224;28;20784;-43
2022/12/23 12:04:51;;;;;;;5.20;2.35;;;;;;;;;;5051770;28;20057;-43
2022/12/23 12:07:17;;;;;;;;;;;;;;;;;;5044042;28;20032;-43
2022/12/23 12:09:44;;;;;;;4.43;2.50;;;;;;;;;;5051471;28;19949;-42
2022/12/23 12:12:16;;;;;;;6.85;2.40;;;;;;;;;;5049979;28;20569;-42
2022/12/23 12:14:41;;;;;;;6.95;2.10;;;;;;;;;;5051866;28;20029;-42
2022/12/23 12:17:15;;;;;;;6.50;1.90;;;;;;;;;;5050678;28;20074;-42
2022/12/23 12:19:47;;;;;;;3.60;1.58;;;;;;;;;;5050091;28;20029;-43
2022/12/23 12:22:17;;;;;;;5.72;2.42;;;;;;;;;;5032824;28;20035;-44
2022/12/23 12:24:47;;;;;;;8.80;2.72;;;;;;;;;;5039951;28;20035;-42
2022/12/23 12:27:14;;;;;;;8.55;3.42;;;;;;;;;;5042900;28;20033;-43
2022/12/23 12:29:40;;;;;;;7.55;2.75;;;;;;;;;;5048216;28;20105;-42
2022/12/23 12:32:11;;;;;;;6.70;2.03;;;;;;;;;;5048894;28;20103;-43
2022/12/23 12:34:42;;;;;;;5.88;2.05;;;;;;;;;;5051249;28;20066;-42
2022/12/23 12:37:13;;;;;;;2.65;1.33;;;;;;;;;;5050172;28;20021;-42
2022/12/23 12:39:42;;;;;;;4.25;1.73;;;;;;;;;;5051030;28;20509;-43
2022/12/23 12:42:16;;;;;;;6.95;1.48;;;;;;;;;;5041505;28;20017;-42
2022/12/23 12:45:01;;;;;;;7.68;3.10;;;;;;;;;;5047529;28;20039;-43
2022/12/23 12:47:29;;;;;;;4.95;1.63;;;;;;;;;;5050502;28;20104;-43
2022/12/23 12:50:01;;;;;;;6.50;1.63;;;;;;;;;;5050330;28;20490;-42
2022/12/23 12:52:28;;;;;;;3.17;1.20;;;;;;;;;;5042349;28;20097;-43
2022/12/23 12:55:00;;;;;;;3.30;1.60;;;;;;;;;;5050788;28;20347;-46
2022/12/23 12:57:25;;;;;;;;;;;;;;;;;;5050358;28;20028;-43
2022/12/23 12:59:56;;;;;;;2.92;1.48;;;;;;;;;;5050752;28;19909;-47
2022/12/23 13:02:33;;;;;;;4.60;1.50;;;;;;;;;;5050336;28;20033;-43
2022/12/23 13:05:05;;;;;;;3.95;1.42;;;;;;;;;;5048214;28;20099;-43
2022/12/23 13:07:38;;;;;;;2.60;1.55;;;;;;;;;;5050163;28;20060;-42
2022/12/23 13:10:22;;;;;;;4.07;1.40;;;;;;;;;;5046032;28;20382;-43
2022/12/23 13:12:48;;;;;;;5.80;2.75;;;;;;;;;;5055416;28;20459;-42
2022/12/23 13:15:19;;;;;;;7.57;1.40;;;;;;;;;;5044833;28;20036;-43
2022/12/23 13:17:58;;;;;;;6.82;1.42;;;;;;;;;;5050080;28;20352;-43
2022/12/23 13:20:46;;;;;;;3.35;2.03;;;;;;;;;;5048482;28;20055;-44
2022/12/23 13:23:35;;;;;;;6.68;1.75;;;;;;;;;;5048624;28;20025;-38
2022/12/23 13:26:08;;;;;;;6.82;1.30;;;;;;;;;;5021983;28;20044;-37
2022/12/23 13:28:44;;;;;;;9.15;1.90;;;;;;;;;;5047056;28;20033;-37
2022/12/23 13:31:25;;;;;;;5.78;2.25;;;;;;;;;;5049662;28;20510;-37
2022/12/23 13:33:57;;;;;;;8.40;2.20;;;;;;;;;;5052723;28;20083;-40
2022/12/23 13:36:50;;;;;;;6.80;2.22;;;;;;;;;;5055111;28;20021;-38
2022/12/23 13:39:26;;;;;;;5.65;1.58;;;;;;;;;;5041105;28;20048;-39
2022/12/23 13:41:55;;;;;;;3.58;1.30;;;;;;;;;;5053547;28;20028;-40
2022/12/23 13:44:21;;;;;;;7.45;1.90;;;;;;;;;;5049223;28;20438;-38
2022/12/23 13:46:56;;;;;;;6.18;1.42;;;;;;;;;;5054563;28;20039;-37
2022/12/23 13:49:35;;;;;;;3.75;1.45;;;;;;;;;;5054777;28;20481;-37
2022/12/23 13:52:16;;;;;;;16.95;2.65;;;;;;;;;;5042569;28;20013;-38
2022/12/23 13:55:01;;;;;;;4.90;1.80;;;;;;;;;;5054249;28;20031;-37
2022/12/23 13:57:45;;;;;;;2.33;1.35;;;;;;;;;;5054353;28;20298;-38
2022/12/23 14:00:17;;;;;;;4.38;1.70;;;;;;;;;;5041536;28;20025;-37
2022/12/23 14:02:51;;;;;;;5.88;2.42;;;;;;;;;;5054054;28;20036;-38
2022/12/23 14:05:33;;;;;;;5.15;1.45;;;;;;;;;;5053603;28;20056;-38
2022/12/23 14:08:01;;;;;;;4.72;1.88;;;;;;;;;;5040341;28;20087;-38
2022/12/23 14:10:27;;;;;;;3.20;1.48;;;;;;;;;;5053342;28;20036;-37
2022/12/23 14:12:58;;;;;;;2.20;1.63;;;;;;;;;;5042235;28;20055;-39
2022/12/23 14:15:24;;;;;;;4.07;1.85;;;;;;;;;;5050160;28;20035;-37
2022/12/23 14:17:50;;;;;;;3.67;1.10;;;;;;;;;;5048111;28;20033;-39
2022/12/23 14:20:35;;;;;;;6.50;2.33;;;;;;;;;;5048736;28;20025;-37
2022/12/23 14:23:16;;;;;;;5.75;1.60;;;;;;;;;;5045015;28;20060;-38
2022/12/23 14:25:49;;;;;;;4.40;1.42;;;;;;;;;;5052557;28;20037;-38
2022/12/23 14:28:21;;;;;;;4.28;1.50;;;;;;;;;;5052746;28;20025;-38
2022/12/23 14:30:47;;;;;;;6.25;1.58;;;;;;;;;;5054136;28;20083;-38
2022/12/23 14:33:22;;;;;;;3.92;1.45;;;;;;;;;;5051633;28;20028;-38
2022/12/23 14:35:51;;;;;;;3.58;1.85;;;;;;;;;;5052458;28;20053;-38
2022/12/23 14:38:27;;;;;;;4.35;1.80;;;;;;;;;;5049660;28;20060;-38
2022/12/23 14:40:53;;;;;;;2.80;1.40;;;;;;;;;;5044922;28;20025;-40
2022/12/23 14:43:24;;;;;;;1.95;1.00;;;;;;;;;;5049654;28;20100;-38
2022/12/23 14:45:51;;;;;;;4.90;1.40;;;;;;;;;;5053384;28;20033;-37
2022/12/23 14:48:35;;;;;;;3.25;2.00;;;;;;;;;;5048432;28;20025;-37
2022/12/23 14:51:21;;;;;;;3.22;1.70;;;;;;;;;;5036879;28;20132;-37
2022/12/23 14:53:55;;;;;;;3.25;1.60;;;;;;;;;;5044597;28;20195;-39
2022/12/23 14:56:42;;;;;;;4.43;0.95;;;;;;;;;;5044028;28;20029;-38
2022/12/23 14:59:34;;;;;;;3.95;0.90;;;;;;;;;;5033133;28;20103;-38
2022/12/23 15:02:00;;;;;;;;;;;;;;;;;;5035255;28;20117;-37
2022/12/23 15:04:26;;;;;;;3.58;1.30;;;;;;;;;;5048561;28;20015;-37
2022/12/23 15:06:58;;;;;;;4.32;1.58;;;;;;;;;;5039497;28;20501;-40
2022/12/23 15:09:26;;;;;;;2.88;1.27;;;;;;;;;;5049400;28;20022;-38
2022/12/23 15:11:53;;;;;;;4.30;2.13;;;;;;;;;;5052204;28;20604;-40
2022/12/23 15:14:37;;;;;;;2.40;1.02;;;;;;;;;;5052622;28;20029;-39
2022/12/23 15:17:16;;;;;;;2.33;0.93;;;;;;;;;;5051588;28;20040;-37
2022/12/23 15:19:46;;;;;;;1.67;1.10;;;;;;;;;;5052440;28;20025;-38